Time;durP1;ratioP1;P1;durP2;ratioP2;P2;SDS_P1;SDS_P2;PMS_P1;PMS_P2;Temp;Humidity;BMP_temperature;BMP_pressure;BME280_temperature;BME280_humidity;BME280_pressure;Samples;Min_cycle;Max_cycle;Signal;HPM_P1;HPM_P2
2022/01/28 00:01:01;;;;;;;;;72.50;52.50;;;;;0.69;80.04;100844.34;4974836;28;45421;-78
2022/01/28 00:03:27;;;;;;;;;64.25;51.25;;;;;0.70;79.96;100853.88;4975629;28;45518;-78
2022/01/28 00:05:52;;;;;;;;;79.50;55.50;;;;;0.68;80.20;100858.16;4988120;28;48277;-78
2022/01/28 00:08:18;;;;;;;;;77.75;57.75;;;;;0.66;80.04;100863.31;4976532;28;45357;-78
2022/01/28 00:10:43;;;;;;;;;72.75;57.75;;;;;0.58;80.46;100866.53;4975730;28;45565;-79
2022/01/28 00:37:09;;;;;;;;;72.50;54.25;;;;;0.29;81.70;100902.91;4975584;28;45901;-78
2022/01/28 00:39:35;;;;;;;;;77.00;57.00;;;;;0.31;81.96;100897.75;4990823;28;45522;-78
2022/01/28 00:42:00;;;;;;;;;69.00;56.25;;;;;0.27;82.06;100894.19;4991003;28;45414;-78
2022/01/28 00:44:26;;;;;;;;;79.50;56.25;;;;;0.27;82.04;100911.47;4987499;28;45568;-79
2022/01/28 00:46:51;;;;;;;;;82.75;59.75;;;;;0.24;81.56;100912.25;4975342;28;45493;-78
2022/01/28 00:49:17;;;;;;;;;75.50;60.00;;;;;0.21;82.37;100925.13;4976178;28;45343;-78
2022/01/28 00:51:43;;;;;;;;;83.75;57.00;;;;;0.15;81.89;100927.53;4990389;28;45471;-78
2022/01/28 00:54:08;;;;;;;;;81.75;56.25;;;;;0.14;81.53;100941.34;4972140;28;45449;-78
2022/01/28 00:56:34;;;;;;;;;74.00;57.25;;;;;0.09;81.08;100947.22;4981823;28;46045;-78
2022/01/28 00:58:59;;;;;;;;;63.75;49.00;;;;;-0.02;80.44;100949.47;4972804;28;45328;-79
2022/01/28 01:01:29;;;;;;;;;62.00;45.00;;;;;-0.12;80.37;100950.00;4973404;28;45421;-78
2022/01/28 01:03:55;;;;;;;;;58.67;44.67;;;;;-0.24;80.04;100959.97;4973919;28;45383;-78
2022/01/28 01:06:20;;;;;;;;;74.00;51.00;;;;;-0.37;80.39;100953.50;4985614;28;47786;-78
2022/01/28 01:08:45;;;;;;;;;53.50;45.00;;;;;-0.42;80.37;100952.47;4982246;28;45425;-78
2022/01/28 01:11:11;;;;;;;;;64.00;48.00;;;;;-0.42;80.21;100953.34;4990942;28;45450;-78
2022/01/28 01:13:39;;;;;;;;;71.25;50.25;;;;;-0.39;80.89;100944.81;4975572;28;45512;-79
2022/01/28 01:16:06;;;;;;;;;76.00;57.00;;;;;-0.31;81.81;100955.41;4973472;28;46286;-79
2022/01/28 01:18:40;;;;;;;;;72.75;55.75;;;;;-0.23;81.39;100948.78;4988417;28;45358;-78
2022/01/28 01:21:14;;;;;;;;;77.50;56.25;;;;;-0.14;81.69;100944.75;4975583;28;45422;-79
2022/01/28 01:23:48;;;;;;;;;68.25;48.50;;;;;-0.09;81.94;100947.50;4975256;28;45365;-79
2022/01/28 01:26:14;;;;;;;;;60.00;45.25;;;;;-0.04;81.90;100954.59;4966990;28;47947;-79
2022/01/28 01:28:41;;;;;;;;;67.75;52.50;;;;;0.00;80.34;100947.81;4989076;28;45422;-79
2022/01/28 01:31:12;;;;;;;;;88.50;62.00;;;;;0.03;81.38;100944.41;4976027;28;45438;-78
2022/01/28 01:33:54;;;;;;;;;78.75;55.25;;;;;0.06;81.88;100950.56;4985246;28;45301;-78
2022/01/28 01:36:19;;;;;;;;;82.00;59.50;;;;;0.11;81.92;100941.25;4975077;28;46019;-78
2022/01/28 01:38:45;;;;;;;;;77.25;58.75;;;;;0.14;82.51;100943.94;4973672;28;45458;-79
2022/01/28 01:41:16;;;;;;;;;74.00;56.50;;;;;0.21;82.31;100950.16;4970680;28;45533;-79
2022/01/28 01:54:06;;;;;;;;;68.25;47.50;;;;;0.45;81.64;100956.13;4974464;28;45502;-79
2022/01/28 01:56:33;;;;;;;;;76.75;58.00;;;;;0.48;81.37;100964.00;4974813;28;46108;-78
2022/01/28 01:58:58;;;;;;;;;76.00;56.50;;;;;0.48;81.24;100966.59;4989529;28;45436;-78
2022/01/28 02:01:24;;;;;;;;;67.50;53.50;;;;;0.48;81.18;100966.59;4978032;28;45497;-78
2022/01/28 02:03:49;;;;;;;;;76.50;54.75;;;;;0.48;81.04;100960.50;4975737;28;45367;-78
2022/01/28 02:06:19;;;;;;;;;80.50;56.75;;;;;0.49;81.44;100957.97;4975327;28;46146;-79
2022/01/28 02:08:45;;;;;;;;;77.75;56.25;;;;;0.51;81.25;100964.06;4976012;28;45517;-78
2022/01/28 02:11:10;;;;;;;;;75.00;58.00;;;;;0.53;81.01;100962.38;4992069;28;45553;-78
2022/01/28 02:13:38;;;;;;;;;68.75;51.00;;;;;0.55;81.09;100957.25;4993179;28;45463;-78
2022/01/28 02:16:05;;;;;;;;;71.25;55.25;;;;;0.56;80.37;100964.19;4977611;28;45434;-78
2022/01/28 02:18:31;;;;;;;;;68.75;51.75;;;;;0.54;80.69;100950.31;4978039;28;45260;-78
2022/01/28 02:21:04;;;;;;;;;82.50;57.00;;;;;0.56;80.76;100951.22;4978195;28;45419;-78
2022/01/28 02:23:30;;;;;;;;;64.75;48.00;;;;;0.59;80.43;100948.72;4977783;28;45363;-78
2022/01/28 02:25:58;;;;;;;;;68.25;55.75;;;;;0.60;80.63;100943.59;4991290;28;47246;-78
2022/01/28 02:28:24;;;;;;;;;64.50;49.75;;;;;0.62;80.67;100938.44;4989935;28;45572;-78
2022/01/28 02:30:50;;;;;;;;;71.75;53.25;;;;;0.61;80.33;100923.72;4977025;28;45427;-78
2022/01/28 02:33:22;;;;;;;;;72.00;49.50;;;;;0.63;80.41;100922.03;4977723;28;45506;-78
2022/01/28 02:35:49;;;;;;;;;71.00;54.00;;;;;0.65;80.22;100921.25;4971200;28;47790;-78
2022/01/28 02:38:16;;;;;;;;;67.75;52.50;;;;;0.68;79.99;100917.84;4992735;28;45503;-78
2022/01/28 02:40:47;;;;;;;;;59.00;43.75;;;;;0.68;79.71;100910.94;4970364;28;45550;-78
2022/01/28 02:45:49;;;;;;;;;63.75;49.25;;;;;0.63;79.53;100917.72;4976474;28;45379;-78
2022/01/28 02:48:19;;;;;;;;;63.50;51.25;;;;;0.62;79.76;100908.19;4992688;28;45461;-78
2022/01/28 02:53:30;;;;;;;;;71.25;53.75;;;;;0.64;79.30;100905.63;4977479;28;45663;-79
2022/01/28 02:55:59;;;;;;;;;63.00;47.25;;;;;0.60;79.27;100903.78;4969782;28;48017;-78
2022/01/28 02:58:26;;;;;;;;;70.50;52.50;;;;;0.54;79.26;100896.69;4977735;28;45450;-78
2022/01/28 03:00:57;;;;;;;;;61.50;43.00;;;;;0.52;79.27;100897.47;4973106;28;45443;-78
2022/01/28 03:03:23;;;;;;;;;72.00;50.00;;;;;0.52;79.04;100892.28;4992748;28;45502;-79
2022/01/28 03:05:50;;;;;;;;;66.00;50.25;;;;;0.48;79.46;100893.06;5008540;28;47039;-79
2022/01/28 03:08:16;;;;;;;;;69.75;51.50;;;;;0.45;79.88;100883.47;4977646;28;45458;-79
2022/01/28 03:10:48;;;;;;;;;68.75;51.00;;;;;0.43;79.76;100876.47;4992178;28;45407;-79
2022/01/28 03:13:28;;;;;;;;;68.25;51.75;;;;;0.44;79.83;100873.94;4977449;28;45418;-79
2022/01/28 03:15:55;;;;;;;;;63.00;49.75;;;;;0.47;79.45;100875.72;4988747;28;48188;-79
2022/01/28 03:18:28;;;;;;;;;67.00;50.50;;;;;0.49;79.36;100874.06;4992262;28;45463;-79
2022/01/28 03:23:20;;;;;;;;;68.67;54.00;;;;;0.52;79.46;100876.72;4977423;28;45410;-79
2022/01/28 03:25:47;;;;;;;;;69.50;55.00;;;;;0.53;78.94;100881.06;4967253;28;45497;-79
2022/01/28 03:28:14;;;;;;;;;63.50;50.25;;;;;0.50;78.61;100870.63;4969515;28;45415;-79
2022/01/28 03:30:40;;;;;;;;;64.75;49.50;;;;;0.45;78.44;100869.63;4976469;28;45406;-78
2022/01/28 03:33:05;;;;;;;;;62.00;46.33;;;;;0.42;78.88;100878.19;4976763;28;45495;-79
2022/01/28 03:35:33;;;;;;;;;73.67;50.67;;;;;0.41;78.60;100891.09;4991794;28;45423;-79
2022/01/28 03:38:00;;;;;;;;;68.00;47.67;;;;;0.33;78.52;100885.72;4975862;28;45981;-79
2022/01/28 03:40:27;;;;;;;;;60.67;45.33;;;;;0.31;78.79;100882.19;4990604;28;45364;-78
2022/01/28 03:42:53;;;;;;;;;66.67;49.67;;;;;0.31;78.74;100887.38;4974494;28;45393;-78
2022/01/28 03:45:18;;;;;;;;;62.00;47.67;;;;;0.29;78.67;100895.13;4984902;28;45576;-78
2022/01/28 03:47:44;;;;;;;;;61.00;48.67;;;;;0.28;78.95;100893.34;4975966;28;45494;-79
2022/01/28 03:50:09;;;;;;;;;61.67;49.00;;;;;0.28;78.37;100893.34;4975415;28;45483;-78
2022/01/28 03:52:35;;;;;;;;;55.25;44.75;;;;;0.21;78.39;100900.91;4975793;28;45526;-78
2022/01/28 03:55:01;;;;;;;;;72.25;49.25;;;;;0.15;78.99;100904.19;4975886;28;45462;-79
2022/01/28 03:57:27;;;;;;;;;60.00;44.00;;;;;0.15;78.86;100906.78;4991733;28;45483;-79
2022/01/28 03:59:52;;;;;;;;;67.25;47.50;;;;;0.17;79.25;100905.09;4991422;28;45436;-79
2022/01/28 04:02:21;;;;;;;;;71.25;50.00;;;;;0.17;78.89;100906.84;4976602;28;45482;-79
2022/01/28 04:12:50;;;;;;;;;65.00;45.67;;;;;0.12;79.22;100896.31;4975967;28;45325;-78
2022/01/28 04:17:44;;;;;;;;;64.67;47.33;;;;;0.10;79.37;100902.28;4976146;28;45538;-79
2022/01/28 04:20:10;;;;;;;;;60.33;48.33;;;;;0.11;79.21;100902.34;4975696;28;45355;-78
2022/01/28 04:22:38;;;;;;;;;60.00;44.33;;;;;0.09;79.18;100903.13;4990417;28;45535;-78
2022/01/28 04:25:04;;;;;;;;;63.25;49.50;;;;;0.10;79.01;100903.19;4988328;28;46793;-78
2022/01/28 04:27:29;;;;;;;;;67.67;50.00;;;;;0.11;79.17;100901.47;4976155;28;45329;-78
2022/01/28 04:29:55;;;;;;;;;63.25;49.00;;;;;0.12;78.94;100898.03;4968135;28;45529;-79
2022/01/28 04:32:23;;;;;;;;;68.75;48.50;;;;;0.13;79.06;100899.81;4991391;28;45355;-78
2022/01/28 04:34:48;;;;;;;;;67.25;49.25;;;;;0.13;79.31;100905.88;4974473;28;47279;-78
2022/01/28 04:37:34;;;;;;;;;66.50;49.25;;;;;0.16;78.97;100913.75;4975711;28;45572;-78
2022/01/28 04:47:47;;;;;;;;;64.25;48.75;;;;;0.15;78.48;100931.84;4975857;28;45393;-79
2022/01/28 05:27:36;;;;;;;;;62.67;48.67;;;;;0.08;78.89;100992.13;4972529;28;45241;-78
2022/01/28 05:30:01;;;;;;;;;58.00;47.50;;;;;0.06;78.97;100994.66;4962666;28;45527;-78
2022/01/28 05:32:26;;;;;;;;;61.75;44.50;;;;;0.03;78.87;101009.22;4973946;28;45504;-78
2022/01/28 05:34:52;;;;;;;;;67.50;49.75;;;;;0.04;79.13;101013.59;4976641;28;45593;-79
2022/01/28 05:37:17;;;;;;;;;64.00;43.33;;;;;0.08;79.20;101018.03;4993073;28;48163;-78
2022/01/28 05:39:43;;;;;;;;;67.50;52.00;;;;;0.13;78.99;101019.97;4972039;28;45312;-78
2022/01/28 05:42:08;;;;;;;;;59.75;45.75;;;;;0.19;79.01;101027.91;4978100;28;45819;-79
2022/01/28 05:44:34;;;;;;;;;61.00;45.33;;;;;0.24;78.55;101030.66;4973296;28;45519;-78
2022/01/28 05:47:03;;;;;;;;;65.00;44.75;;;;;0.27;78.30;101043.75;4992458;28;47379;-78
2022/01/28 05:49:29;;;;;;;;;64.75;48.00;;;;;0.30;78.25;101038.66;4971997;28;45252;-79
2022/01/28 05:51:54;;;;;;;;;66.33;46.67;;;;;0.32;78.20;101039.59;4973794;28;45418;-79
2022/01/28 05:54:19;;;;;;;;;64.25;51.00;;;;;0.36;78.10;101044.00;4974077;28;45419;-78
2022/01/28 05:56:45;;;;;;;;;63.67;48.67;;;;;0.37;78.03;101048.38;4974742;28;46585;-79
2022/01/28 05:59:11;;;;;;;;;50.75;44.25;;;;;0.38;77.57;101044.94;4989578;28;45516;-78
2022/01/28 06:01:36;;;;;;;;;52.67;39.67;;;;;0.33;77.89;101041.34;4977109;28;45448;-78
2022/01/28 06:04:01;;;;;;;;;70.25;49.50;;;;;0.33;78.05;101041.34;4977000;28;45340;-78
2022/01/28 06:06:27;;;;;;;;;54.33;43.67;;;;;0.36;77.72;101038.81;4975492;28;45517;-78
2022/01/28 06:08:54;;;;;;;;;47.33;39.33;;;;;0.40;77.54;101037.22;4977708;28;45227;-78
2022/01/28 06:11:21;;;;;;;;;56.00;39.67;;;;;0.43;77.56;101045.09;4988900;28;45591;-79
2022/01/28 06:13:47;;;;;;;;;61.75;46.75;;;;;0.48;77.66;101039.25;4974504;28;45559;-80
2022/01/28 06:16:14;;;;;;;;;58.00;40.33;;;;;0.52;77.26;101035.88;4977494;28;45430;-79
2022/01/28 06:18:40;;;;;;;;;54.67;42.00;;;;;0.51;77.16;101043.59;4977632;28;45451;-78
2022/01/28 06:21:06;;;;;;;;;54.00;43.33;;;;;0.50;76.91;101034.09;4978399;28;45425;-78
2022/01/28 06:23:32;;;;;;;;;63.00;48.00;;;;;0.50;77.19;101037.56;4977382;28;45297;-78
2022/01/28 06:25:57;;;;;;;;;54.00;44.33;;;;;0.51;76.83;101041.03;4992768;28;47010;-78
2022/01/28 06:28:23;;;;;;;;;57.33;42.67;;;;;0.48;76.40;101036.63;4977054;28;45375;-79
2022/01/28 06:30:49;;;;;;;;;63.67;44.33;;;;;0.45;76.35;101033.06;4991939;28;45431;-78
2022/01/28 06:33:15;;;;;;;;;65.00;48.33;;;;;0.41;76.54;101028.59;4976821;28;45566;-79
2022/01/28 06:35:42;;;;;;;;;63.25;48.00;;;;;0.39;76.71;101032.84;4973696;28;45691;-79
2022/01/28 06:38:08;;;;;;;;;60.00;44.00;;;;;0.40;76.98;101035.50;4976905;28;45512;-79
2022/01/28 06:40:33;;;;;;;;;64.67;50.33;;;;;0.40;77.15;101029.44;4976595;28;45252;-79
2022/01/28 06:42:59;;;;;;;;;63.00;45.67;;;;;0.41;76.69;101033.78;4975213;28;45595;-78
2022/01/28 06:45:25;;;;;;;;;62.75;47.25;;;;;0.41;76.76;101032.09;4984855;28;47189;-78
2022/01/28 06:47:50;;;;;;;;;62.33;48.00;;;;;0.39;77.10;101028.56;4975293;28;45605;-78
2022/01/28 06:50:15;;;;;;;;;67.75;52.25;;;;;0.43;76.53;101034.72;4976501;28;45414;-78
2022/01/28 06:52:42;;;;;;;;;62.00;47.75;;;;;0.44;76.90;101042.56;4976968;28;45373;-78
2022/01/28 06:55:10;;;;;;;;;62.00;47.33;;;;;0.46;76.81;101046.09;4969828;28;45415;-78
2022/01/28 06:57:35;;;;;;;;;53.67;45.67;;;;;0.47;76.66;101054.75;4976647;28;45391;-78
2022/01/28 07:00:03;;;;;;;;;58.67;46.67;;;;;0.47;76.11;101045.25;4974628;28;45390;-78
2022/01/28 07:02:28;;;;;;;;;53.67;42.33;;;;;0.43;75.74;101045.09;4976963;28;45435;-79
2022/01/28 07:04:53;;;;;;;;;64.33;48.67;;;;;0.38;75.87;101049.25;4976079;28;45469;-78
2022/01/28 07:07:22;;;;;;;;;63.25;49.50;;;;;0.38;76.59;101044.06;4976340;28;45348;-78
2022/01/28 07:09:48;;;;;;;;;63.33;45.67;;;;;0.39;76.59;101044.13;4976699;28;45324;-78
2022/01/28 07:12:14;;;;;;;;;55.33;47.33;;;;;0.43;76.29;101047.69;4976456;28;45946;-78
2022/01/28 07:14:40;;;;;;;;;57.33;44.00;;;;;0.44;76.53;101058.13;4975780;28;45449;-78
2022/01/28 07:17:05;;;;;;;;;66.00;45.00;;;;;0.46;76.12;101056.47;4975608;28;45479;-78
2022/01/28 07:19:30;;;;;;;;;57.33;45.00;;;;;0.49;76.10;101056.56;4975189;28;45411;-78
2022/01/28 07:21:56;;;;;;;;;65.67;49.67;;;;;0.53;75.90;101063.59;4984845;28;45622;-78
2022/01/28 07:24:21;;;;;;;;;51.00;43.33;;;;;0.54;75.81;101062.75;4975564;28;46526;-78
2022/01/28 07:26:47;;;;;;;;;48.00;39.67;;;;;0.58;75.63;101071.53;4974034;28;45305;-78
2022/01/28 07:29:13;;;;;;;;;62.00;47.00;;;;;0.61;76.05;101071.63;4974984;28;45885;-78
2022/01/28 07:31:39;;;;;;;;;50.67;41.00;;;;;0.65;75.78;101073.50;4975861;28;45359;-78
2022/01/28 07:34:06;;;;;;;;;52.33;40.33;;;;;0.66;75.65;101072.66;4971655;28;45907;-78
2022/01/28 07:36:33;;;;;;;;;62.00;49.33;;;;;0.67;75.54;101077.88;4972080;28;45376;-78
2022/01/28 07:38:58;;;;;;;;;52.00;43.67;;;;;0.70;75.41;101082.28;4973179;28;45415;-78
2022/01/28 07:41:23;;;;;;;;;55.67;43.67;;;;;0.72;75.53;101087.53;4975623;28;45519;-79
2022/01/28 07:43:49;;;;;;;;;62.33;45.33;;;;;0.71;75.40;101086.63;4973679;28;46268;-79
2022/01/28 07:46:15;;;;;;;;;61.00;45.33;;;;;0.71;75.37;101094.44;4986155;28;45513;-78
2022/01/28 07:48:41;;;;;;;;;66.25;49.25;;;;;0.72;75.28;101093.59;4972034;28;45732;-79
2022/01/28 07:51:07;;;;;;;;;63.25;51.75;;;;;0.72;75.26;101090.13;4975491;28;45557;-78
2022/01/28 07:53:32;;;;;;;;;64.33;48.00;;;;;0.73;74.86;101104.84;4975069;28;45460;-79
2022/01/28 07:55:58;;;;;;;;;61.67;46.00;;;;;0.72;75.22;101110.88;4964640;28;45456;-80
2022/01/28 07:58:23;;;;;;;;;59.33;46.67;;;;;0.73;75.24;101110.94;4974708;28;45377;-79
2022/01/28 08:00:49;;;;;;;;;56.00;44.67;;;;;0.73;75.05;101113.53;4975068;28;45573;-78
2022/01/28 08:03:14;;;;;;;;;62.00;46.67;;;;;0.71;74.64;101110.00;4990619;28;47736;-79
2022/01/28 08:05:39;;;;;;;;;58.33;44.33;;;;;0.70;74.82;101113.44;4984067;28;45534;-79
2022/01/28 08:08:08;;;;;;;;;57.25;43.75;;;;;0.76;74.79;101112.75;4990826;28;45336;-80
2022/01/28 08:10:33;;;;;;;;;55.00;46.00;;;;;0.77;74.46;101118.00;4971052;28;45479;-79
2022/01/28 08:13:02;;;;;;;;;59.33;43.67;;;;;0.79;74.64;101120.63;4975489;28;45646;-80
2022/01/28 08:15:27;;;;;;;;;62.67;48.00;;;;;0.81;74.37;101112.06;4973849;28;45387;-80
2022/01/28 08:17:53;;;;;;;;;56.33;41.67;;;;;0.83;74.10;101110.41;4973940;28;45501;-79
2022/01/28 08:20:18;;;;;;;;;56.00;44.67;;;;;0.89;74.12;101123.56;4975574;28;45308;-80
2022/01/28 08:22:48;;;;;;;;;61.33;43.33;;;;;0.95;74.28;101118.56;4989854;28;46436;-79
2022/01/28 08:25:18;;;;;;;;;55.00;44.33;;;;;1.01;73.71;101118.72;4960988;28;45483;-79
2022/01/28 08:27:47;;;;;;;;;42.00;37.00;;;;;1.04;73.78;101123.13;4990315;28;45407;-79
2022/01/28 08:30:14;;;;;;;;;41.00;38.00;;;;;1.04;73.45;101121.41;4983325;28;45573;-80
2022/01/28 08:32:40;;;;;;;;;64.00;47.00;;;;;1.04;73.32;101129.22;4973543;28;47235;-79
2022/01/28 08:35:07;;;;;;;;;61.67;48.00;;;;;1.08;72.92;101124.13;4990278;28;45355;-79
2022/01/28 08:37:32;;;;;;;;;50.33;41.33;;;;;1.10;73.25;101122.44;4990675;28;45490;-79
2022/01/28 08:39:59;;;;;;;;;56.00;43.33;;;;;1.11;73.30;101138.09;4974847;28;45327;-79
2022/01/28 08:42:24;;;;;;;;;63.33;46.67;;;;;1.10;72.95;101133.72;4975032;28;45601;-79
2022/01/28 08:44:50;;;;;;;;;51.67;42.67;;;;;1.11;73.22;101142.41;4968620;28;45475;-79
2022/01/28 08:47:15;;;;;;;;;59.33;47.67;;;;;1.11;73.18;101147.59;4989591;28;45492;-78
2022/01/28 08:49:41;;;;;;;;;65.33;45.33;;;;;1.15;73.16;101155.53;4968722;28;45267;-79
2022/01/28 08:52:06;;;;;;;;;70.50;50.25;;;;;1.19;73.14;101148.69;4989951;28;47577;-80
2022/01/28 08:54:32;;;;;;;;;65.33;51.33;;;;;1.21;72.89;101162.59;4974488;28;45384;-81
2022/01/28 08:56:57;;;;;;;;;67.00;49.33;;;;;1.22;72.82;101169.56;4975469;28;45490;-80
2022/01/28 08:59:22;;;;;;;;;51.67;39.33;;;;;1.21;72.73;101168.69;4973274;28;45379;-81
2022/01/28 09:01:48;;;;;;;;;60.00;44.33;;;;;1.18;72.88;101166.00;4973286;28;47409;-80
2022/01/28 09:04:13;;;;;;;;;56.33;45.67;;;;;1.15;72.61;101167.63;4974192;28;45377;-81
2022/01/28 09:06:39;;;;;;;;;59.00;47.00;;;;;1.12;72.78;101175.31;4974741;28;45752;-81
2022/01/28 09:09:04;;;;;;;;;58.00;47.00;;;;;1.11;73.22;101178.75;4974518;28;45568;-81
2022/01/28 09:14:14;;;;;;;;;59.00;47.33;;;;;1.14;72.85;101178.84;4974362;28;45358;-80
2022/01/28 09:16:42;;;;;;;;;55.00;41.00;;;;;1.15;73.16;101186.69;4989785;28;45463;-79
2022/01/28 09:19:07;;;;;;;;;56.33;43.00;;;;;1.17;73.25;101184.16;4972782;28;46058;-79
2022/01/28 09:21:33;;;;;;;;;65.00;45.00;;;;;1.19;72.75;101182.47;4974361;28;46235;-78
2022/01/28 09:23:58;;;;;;;;;67.00;50.75;;;;;1.25;73.06;101188.72;4987531;28;45431;-80
2022/01/28 09:26:24;;;;;;;;;52.33;40.00;;;;;1.28;72.23;101191.44;4970121;28;45391;-78
2022/01/28 09:28:49;;;;;;;;;64.00;47.33;;;;;1.27;72.40;101188.78;4970393;28;45485;-78
2022/01/28 09:31:15;;;;;;;;;51.00;44.67;;;;;1.27;72.22;101183.59;4966022;28;45588;-78
2022/01/28 09:33:40;;;;;;;;;47.33;40.67;;;;;1.29;72.07;101190.59;4972516;28;45521;-78
2022/01/28 09:36:07;;;;;;;;;58.67;46.33;;;;;1.27;71.99;101202.66;4964838;28;45360;-78
2022/01/28 09:38:33;;;;;;;;;60.33;44.33;;;;;1.29;72.07;101205.31;4972479;28;45349;-80
2022/01/28 09:41:04;;;;;;;;;59.67;43.00;;;;;1.38;72.14;101202.97;4981527;28;47851;-79
2022/01/28 09:43:30;;;;;;;;;53.00;44.33;;;;;1.42;72.09;101193.56;4986414;28;45505;-79
2022/01/28 09:45:55;;;;;;;;;64.67;46.33;;;;;1.50;72.33;101192.09;4974018;28;45494;-79
2022/01/28 09:48:22;;;;;;;;;54.00;43.00;;;;;1.57;72.04;101191.41;4973932;28;45444;-79
2022/01/28 09:50:48;;;;;;;;;64.67;49.33;;;;;1.64;71.63;101186.44;4968630;28;46166;-78
2022/01/28 09:53:14;;;;;;;;;61.33;45.67;;;;;1.71;72.37;101184.88;4989346;28;45518;-79
2022/01/28 09:55:40;;;;;;;;;61.33;48.33;;;;;1.79;71.40;101188.59;4986277;28;45426;-78
2022/01/28 09:58:12;;;;;;;;;58.00;41.33;;;;;1.88;71.38;101186.25;4969953;28;45485;-79
2022/01/28 10:00:38;;;;;;;;;52.00;43.33;;;;;1.93;71.55;101179.47;4970047;28;46366;-78
2022/01/28 10:03:04;;;;;;;;;39.00;29.33;;;;;2.03;71.45;101189.25;4988871;28;45483;-79
2022/01/28 10:05:36;;;;;;;;;57.00;45.33;;;;;2.07;70.69;101190.25;4989042;28;45616;-79
2022/01/28 10:08:04;;;;;;;;;64.33;47.00;;;;;2.07;70.92;101191.13;4974080;28;45437;-78
2022/01/28 10:10:41;;;;;;;;;66.33;48.33;;;;;2.13;70.84;101195.63;4972319;28;46212;-79
2022/01/28 10:13:12;;;;;;;;;48.00;39.33;;;;;2.21;70.57;101193.19;4980044;28;45494;-79
2022/01/28 10:16:17;;;;;;;;;63.67;45.67;;;;;2.30;70.60;101196.94;4971862;28;45465;-79
2022/01/28 10:18:53;;;;;;;;;62.33;44.67;;;;;2.42;69.90;101212.88;4966969;28;45419;-79
2022/01/28 10:21:33;;;;;;;;;61.00;42.33;;;;;2.48;69.70;101214.78;4985051;28;48493;-79
2022/01/28 10:24:03;;;;;;;;;60.33;45.67;;;;;2.53;69.82;101217.47;4973472;28;45304;-79
2022/01/28 10:27:05;;;;;;;;;53.33;44.67;;;;;2.55;69.52;101221.00;4967801;28;45446;-78
2022/01/28 10:29:42;;;;;;;;;62.33;48.00;;;;;2.62;69.59;101228.16;4974906;28;45312;-79
2022/01/28 10:32:08;;;;;;;;;47.00;40.00;;;;;2.67;69.73;101234.38;4991652;28;47194;-78
2022/01/28 10:34:35;;;;;;;;;58.33;41.00;;;;;2.71;69.22;101230.97;4976980;28;45451;-79
2022/01/28 10:37:09;;;;;;;;;61.67;45.67;;;;;2.72;68.74;101233.63;4974922;28;45499;-79
2022/01/28 10:39:51;;;;;;;;;64.67;46.00;;;;;2.78;68.53;101231.19;4972490;28;45482;-78
2022/01/28 10:42:36;;;;;;;;;63.33;50.00;;;;;2.85;68.88;101228.72;4964557;28;46091;-79
2022/01/28 10:45:09;;;;;;;;;62.67;46.33;;;;;2.85;68.51;101224.38;4991137;28;45823;-79
2022/01/28 10:47:37;;;;;;;;;65.00;46.33;;;;;2.87;68.27;101225.28;4976998;28;45367;-78
2022/01/28 10:50:36;;;;;;;;;68.00;52.67;;;;;2.84;68.64;101220.03;4976110;28;45382;-78
2022/01/28 10:53:01;;;;;;;;;68.67;50.67;;;;;2.83;68.62;101213.06;4976720;28;46370;-79
2022/01/28 10:55:30;;;;;;;;;64.00;46.67;;;;;2.85;68.65;101206.13;4971350;28;45483;-78
2022/01/28 10:57:58;;;;;;;;;62.00;45.67;;;;;2.93;68.35;101209.84;4988898;28;45377;-80
2022/01/28 11:00:27;;;;;;;;;65.00;45.00;;;;;3.04;68.40;101204.88;4972095;28;45438;-80
2022/01/28 11:02:53;;;;;;;;;64.67;49.33;;;;;3.09;67.93;101208.47;4988071;28;46795;-80
2022/01/28 11:05:21;;;;;;;;;58.67;47.00;;;;;3.09;68.32;101206.75;4990879;28;45430;-79
2022/01/28 11:07:47;;;;;;;;;66.00;47.67;;;;;3.09;68.37;101204.13;4968689;28;45512;-79
2022/01/28 11:10:13;;;;;;;;;65.33;49.67;;;;;3.12;68.48;101206.81;4986859;28;45581;-79
2022/01/28 11:12:40;;;;;;;;;57.00;46.00;;;;;3.16;67.42;101205.19;4990458;28;45426;-80
2022/01/28 11:15:07;;;;;;;;;63.33;48.67;;;;;3.18;68.08;101206.09;4968914;28;45513;-80
2022/01/28 11:17:32;;;;;;;;;67.67;48.67;;;;;3.21;67.54;101187.91;4973758;28;45367;-81
2022/01/28 11:19:59;;;;;;;;;64.00;50.67;;;;;3.26;67.08;101188.00;4976099;28;45482;-80
2022/01/28 11:22:26;;;;;;;;;63.00;45.00;;;;;3.25;67.25;101187.13;4976437;28;45396;-80
2022/01/28 11:25:06;;;;;;;;;64.00;47.00;;;;;3.32;67.17;101178.59;4965550;28;45485;-80
2022/01/28 11:27:37;;;;;;;;;55.33;44.33;;;;;3.41;67.00;101178.78;4974850;28;45439;-80
2022/01/28 11:30:28;;;;;;;;;61.00;48.67;;;;;3.50;66.63;101176.41;4975288;28;45520;-80
2022/01/28 11:33:01;;;;;;;;;66.33;51.00;;;;;3.59;66.48;101167.88;4975632;28;46674;-80
2022/01/28 11:35:34;;;;;;;;;65.00;49.00;;;;;3.67;66.23;101158.50;4969317;28;45594;-80
2022/01/28 11:38:04;;;;;;;;;62.67;45.00;;;;;3.70;66.31;101166.38;4976279;28;45387;-81
2022/01/28 11:40:51;;;;;;;;;63.00;46.33;;;;;3.71;65.90;101156.81;4971776;28;45585;-80
2022/01/28 11:43:24;;;;;;;;;61.33;46.00;;;;;3.70;65.29;101153.31;4989478;28;45456;-80
2022/01/28 11:46:09;;;;;;;;;63.33;45.67;;;;;3.70;65.88;101153.31;4975325;28;45485;-80
2022/01/28 11:48:56;;;;;;;;;67.67;50.00;;;;;3.78;65.97;101148.28;4975688;28;45442;-81
2022/01/28 11:51:33;;;;;;;;;59.33;43.33;;;;;3.83;66.33;101149.25;4975376;28;45474;-80
2022/01/28 11:54:11;;;;;;;;;70.33;52.33;;;;;3.84;65.79;101144.06;4987214;28;45937;-79
2022/01/28 11:57:02;;;;;;;;;66.33;48.00;;;;;3.83;66.43;101137.09;4972120;28;45439;-81
2022/01/28 11:59:29;;;;;;;;;55.67;45.00;;;;;3.88;65.97;101129.31;4975065;28;45410;-80
2022/01/28 12:01:54;;;;;;;;;63.33;46.67;;;;;3.98;65.62;101133.00;4975791;28;45459;-81
2022/01/28 12:04:26;;;;;;;;;63.00;49.00;;;;;4.05;65.52;101124.41;4975244;28;46514;-81
2022/01/28 12:07:04;;;;;;;;;60.67;49.00;;;;;4.10;65.47;101117.56;4973819;28;45468;-81
2022/01/28 12:09:32;;;;;;;;;67.67;50.00;;;;;4.18;65.25;101108.16;4974131;28;45423;-81
2022/01/28 12:11:59;;;;;;;;;62.00;49.00;;;;;4.21;65.14;101109.06;4990449;28;45410;-81
2022/01/28 12:14:50;;;;;;;;;61.33;47.00;;;;;4.26;64.83;101105.66;4974362;28;45458;-81
2022/01/28 12:17:43;;;;;;;;;65.00;50.67;;;;;4.31;64.69;101101.41;4973293;28;45639;-81
2022/01/28 12:20:15;;;;;;;;;63.67;50.67;;;;;4.38;65.15;101100.63;4981077;28;45245;-81
2022/01/28 12:22:59;;;;;;;;;67.67;50.00;;;;;4.36;65.04;101081.44;4977534;28;45486;-81
2022/01/28 12:25:39;;;;;;;;;71.00;54.50;;;;;4.39;65.20;101086.72;4975665;28;46383;-79
2022/01/28 12:28:21;;;;;;;;;70.33;48.33;;;;;4.48;65.15;101081.69;4973854;28;45486;-70
2022/01/28 12:31:02;;;;;;;;;70.67;51.67;;;;;4.53;64.93;101075.66;4963346;28;45414;-70
2022/01/28 12:33:36;;;;;;;;;62.67;49.00;;;;;4.56;64.45;101070.47;4974722;28;45501;-70
2022/01/28 12:36:26;;;;;;;;;62.00;44.33;;;;;4.51;63.89;101063.44;4966539;28;46532;-70
2022/01/28 12:41:40;;;;;;;;;66.33;48.33;;;;;4.31;63.49;101060.50;4968673;28;45460;-69
2022/01/28 12:44:06;;;;;;;;;61.67;46.33;;;;;4.18;64.01;101066.41;4971943;28;45443;-64
2022/01/28 12:46:34;;;;;;;;;66.00;50.00;;;;;4.11;63.97;101046.25;4966258;28;45355;-61
2022/01/28 12:49:02;;;;;;;;;65.00;49.00;;;;;4.10;64.62;101042.75;4972048;28;45356;-68
2022/01/28 12:51:27;;;;;;;;;62.00;48.33;;;;;4.08;64.29;101046.19;4982533;28;45427;-67
2022/01/28 12:53:57;;;;;;;;;60.00;47.67;;;;;4.01;64.42;101037.41;4972523;28;45439;-68
2022/01/28 12:56:40;;;;;;;;;65.00;52.33;;;;;3.98;64.82;101026.91;4970621;28;45457;-68
2022/01/28 12:59:06;;;;;;;;;64.67;49.67;;;;;3.98;64.12;101034.72;4972222;28;45494;-68
2022/01/28 13:01:32;;;;;;;;;67.33;52.00;;;;;3.93;64.57;101028.53;4973960;28;45303;-67
2022/01/28 13:04:08;;;;;;;;;67.33;51.67;;;;;3.86;64.75;101017.13;4969252;28;45521;-68
2022/01/28 13:09:15;;;;;;;;;67.33;53.33;;;;;3.77;64.70;101013.47;4968922;28;45324;-67